Time;durP1;ratioP1;P1;durP2;ratioP2;P2;SDS_P1;SDS_P2;PMS_P1;PMS_P2;Temp;Humidity;BMP_temperature;BMP_pressure;BME280_temperature;BME280_humidity;BME280_pressure;Samples;Min_cycle;Max_cycle;Signal;HPM_P1;HPM_P2
2022/02/01 00:00:24;;;;;;;21.00;12.10;;;;;;;2.49;87.21;100730.81;5021633;28;20722;-71
2022/02/01 00:02:55;;;;;;;26.47;11.67;;;;;;;2.49;87.03;100729.94;5022782;28;20335;-70
2022/02/01 00:05:27;;;;;;;22.27;11.27;;;;;;;2.47;87.73;100737.88;5024355;28;20214;-70
2022/02/01 00:08:04;;;;;;;21.77;11.63;;;;;;;2.48;87.30;100726.44;5024227;28;20580;-70
2022/02/01 00:10:43;;;;;;;25.97;12.10;;;;;;;2.47;87.27;100724.72;5026393;28;20246;-70
2022/02/01 00:13:16;;;;;;;23.87;11.87;;;;;;;2.48;87.53;100736.09;5026836;28;20201;-70
2022/02/01 00:16:07;;;;;;;22.30;12.10;;;;;;;2.49;87.03;100732.56;5032996;28;20386;-70
2022/02/01 00:18:47;;;;;;;21.23;11.47;;;;;;;2.49;86.53;100735.19;5029464;28;20265;-70
2022/02/01 00:37:39;;;;;;;27.07;12.77;;;;;;;2.50;86.92;100743.03;5023119;28;20623;-71
2022/02/01 00:40:12;;;;;;;25.90;13.47;;;;;;;2.51;86.14;100742.09;5015103;28;20238;-70
2022/02/01 00:42:38;;;;;;;25.43;13.43;;;;;;;2.51;86.81;100739.47;5016425;28;20235;-70
2022/02/01 00:45:05;;;;;;;30.17;14.40;;;;;;;2.53;87.03;100742.06;5016645;28;20582;-69
2022/02/01 00:47:32;;;;;;;26.87;13.53;;;;;;;2.52;86.06;100722.81;5011733;28;20531;-71
2022/02/01 00:50:00;;;;;;;27.03;14.27;;;;;;;2.54;86.97;100717.50;5026359;28;20222;-71
2022/02/01 00:52:28;;;;;;;29.53;14.87;;;;;;;2.54;86.96;100718.38;5025172;28;20206;-70
2022/02/01 00:54:55;;;;;;;32.87;15.00;;;;;;;2.54;86.19;100717.50;5019476;28;20203;-71
2022/02/01 00:57:21;;;;;;;35.23;15.17;;;;;;;2.55;86.46;100727.97;5017727;28;20210;-72
2022/02/01 00:59:48;;;;;;;28.97;14.90;;;;;;;2.55;87.15;100720.09;5022312;28;20280;-71
2022/02/01 01:02:14;;;;;;;33.20;14.67;;;;;;;2.55;87.20;100725.34;5023127;28;20341;-71
2022/02/01 01:04:42;;;;;;;28.20;14.30;;;;;;;2.54;86.41;100723.63;5014861;28;20219;-70
2022/02/01 01:07:10;;;;;;;28.90;14.00;;;;;;;2.52;87.17;100728.06;5026259;28;20202;-71
2022/02/01 01:09:36;;;;;;;23.40;12.57;;;;;;;2.50;87.23;100732.53;5020392;28;20234;-71
2022/02/01 01:12:03;;;;;;;29.97;13.73;;;;;;;2.51;86.67;100718.44;5013226;28;20214;-71
2022/02/01 01:14:59;;;;;;;27.17;14.07;;;;;;;2.50;86.64;100732.53;5010361;28;20211;-71
2022/02/01 01:17:53;;;;;;;27.63;13.33;;;;;;;2.50;87.09;100727.28;5015827;28;20672;-71
2022/02/01 01:45:04;;;;;;;22.03;12.50;;;;;;;2.46;88.14;100728.25;5020015;28;20222;-71
2022/02/01 01:53:19;;;;;;;15.40;10.07;;;;;;;2.43;88.94;100718.69;5019310;28;20251;-72
2022/02/01 01:55:50;;;;;;;16.90;9.13;;;;;;;2.43;89.79;100731.84;5030755;28;20313;-70
2022/02/01 01:58:18;;;;;;;18.27;9.67;;;;;;;2.45;88.95;100731.78;5028336;28;20226;-71
2022/02/01 02:03:30;;;;;;;15.63;8.80;;;;;;;2.49;90.17;100741.31;5011800;28;20226;-71
2022/02/01 02:05:57;;;;;;;21.90;9.10;;;;;;;2.49;90.01;100749.19;5022548;28;20202;-71
2022/02/01 02:08:24;;;;;;;14.97;7.70;;;;;;;2.50;90.77;100750.94;5043802;22;20495;-70
2022/02/01 02:10:58;;;;;;;15.03;7.10;;;;;;;2.52;90.88;100759.59;5045256;28;20586;-72
2022/02/01 02:16:08;;;;;;;13.13;6.53;;;;;;;2.53;91.07;100761.34;5017800;28;20583;-70
2022/02/01 02:18:35;;;;;;;14.27;6.40;;;;;;;2.54;91.42;100764.81;5024162;28;20211;-71
2022/02/01 02:21:06;;;;;;;10.30;4.93;;;;;;;2.52;91.21;100751.72;5011521;28;20214;-71
2022/02/01 02:23:33;;;;;;;15.37;5.37;;;;;;;2.50;91.65;100743.03;5021919;28;20720;-71
2022/02/01 02:26:01;;;;;;;13.40;5.40;;;;;;;2.51;91.47;100749.16;5024952;28;20210;-73
2022/02/01 02:28:28;;;;;;;12.63;5.43;;;;;;;2.51;91.54;100743.91;5012417;28;20631;-71
2022/02/01 02:30:54;;;;;;;10.87;5.20;;;;;;;2.50;91.14;100735.16;5028849;28;20676;-70
2022/02/01 02:33:21;;;;;;;10.63;5.03;;;;;;;2.51;91.91;100728.97;5019849;28;20214;-71
2022/02/01 02:35:55;;;;;;;11.93;5.40;;;;;;;2.51;91.99;100721.06;5011215;28;20218;-71
2022/02/01 02:38:32;;;;;;;17.07;6.13;;;;;;;2.52;92.14;100725.44;5024315;28;20207;-71
2022/02/01 02:41:09;;;;;;;13.50;5.67;;;;;;;2.53;91.78;100721.03;5036572;28;20671;-72
2022/02/01 02:46:24;;;;;;;10.87;4.50;;;;;;;2.55;91.72;100714.81;5030469;28;20599;-71
2022/02/01 02:48:51;;;;;;;10.50;3.87;;;;;;;2.58;92.13;100724.41;5023927;28;20226;-71
2022/02/01 02:51:18;;;;;;;9.37;3.47;;;;;;;2.56;91.65;100723.56;5031280;28;20216;-72
2022/02/01 02:53:47;;;;;;;15.33;3.23;;;;;;;2.56;91.81;100726.22;5028839;28;20206;-71
2022/02/01 02:56:13;;;;;;;15.33;3.30;;;;;;;2.56;91.78;100727.06;5013043;28;20210;-71
2022/02/01 02:58:40;;;;;;;15.97;3.97;;;;;;;2.57;91.76;100734.06;5039316;28;20233;-71
2022/02/01 03:01:07;;;;;;;5.77;1.97;;;;;;;2.55;91.80;100735.00;5031167;28;20210;-71
2022/02/01 03:03:34;;;;;;;8.87;2.00;;;;;;;2.54;91.69;100743.78;5018151;28;20254;-70
2022/02/01 03:06:05;;;;;;;9.93;2.47;;;;;;;2.52;90.89;100732.44;5010284;28;20210;-71
2022/02/01 03:08:32;;;;;;;9.63;2.23;;;;;;;2.49;91.75;100722.91;5011159;28;20234;-72
2022/02/01 03:11:01;;;;;;;15.17;3.13;;;;;;;2.49;91.27;100722.06;5010052;28;20245;-71
2022/02/01 03:13:30;;;;;;;13.67;2.43;;;;;;;2.47;91.05;100729.97;5021924;28;20209;-71
2022/02/01 03:16:03;;;;;;;18.77;3.67;;;;;;;2.47;90.88;100734.38;5042178;28;20205;-71
2022/02/01 03:21:13;;;;;;;8.87;2.50;;;;;;;2.43;91.50;100744.13;5015831;28;20213;-71
2022/02/01 03:23:40;;;;;;;11.30;2.57;;;;;;;2.42;90.96;100740.63;5030786;28;20230;-71
2022/02/01 03:26:08;;;;;;;11.37;3.07;;;;;;;2.42;91.23;100739.75;5022581;28;20211;-70
2022/02/01 03:28:35;;;;;;;13.47;3.33;;;;;;;2.40;90.65;100734.53;5032311;28;20327;-71
2022/02/01 03:31:02;;;;;;;12.43;2.60;;;;;;;2.40;91.12;100752.06;5024948;28;20232;-71
2022/02/01 03:33:29;;;;;;;20.50;2.50;;;;;;;2.38;90.61;100757.38;5026937;28;20198;-71
2022/02/01 03:35:55;;;;;;;15.37;3.73;;;;;;;2.36;90.49;100745.19;5016263;28;20221;-71
2022/02/01 03:38:22;;;;;;;19.47;3.87;;;;;;;2.35;90.78;100749.56;5014456;28;20217;-71
2022/02/01 03:40:48;;;;;;;15.27;2.10;;;;;;;2.36;90.36;100753.06;5012808;28;20232;-71
2022/02/01 03:43:16;;;;;;;10.63;2.80;;;;;;;2.36;90.04;100745.19;5016454;28;20704;-72
2022/02/01 03:45:43;;;;;;;10.87;2.50;;;;;;;2.36;89.71;100742.56;5019106;28;20211;-71
2022/02/01 03:48:09;;;;;;;18.30;2.43;;;;;;;2.34;90.40;100741.72;5030222;28;20229;-70
2022/02/01 03:50:36;;;;;;;17.30;3.73;;;;;;;2.35;89.68;100743.44;5023346;28;20242;-71
2022/02/01 03:53:02;;;;;;;15.20;2.83;;;;;;;2.32;89.40;100735.69;5023805;28;20209;-71
2022/02/01 03:55:29;;;;;;;16.83;3.20;;;;;;;2.32;89.15;100749.69;5009658;28;20219;-71
2022/02/01 03:57:55;;;;;;;15.20;2.17;;;;;;;2.32;89.44;100754.94;5019945;28;20210;-71
2022/02/01 04:00:23;;;;;;;12.07;2.30;;;;;;;2.34;88.84;100760.13;5019528;28;20226;-71
2022/02/01 04:02:50;;;;;;;17.53;2.90;;;;;;;2.35;88.78;100767.09;5019136;28;20233;-71
2022/02/01 04:05:17;;;;;;;6.93;2.07;;;;;;;2.35;88.56;100767.97;5025903;28;20232;-70
2022/02/01 04:07:46;;;;;;;10.00;2.37;;;;;;;2.37;88.52;100766.16;5010936;28;20207;-70
2022/02/01 04:10:13;;;;;;;11.53;2.80;;;;;;;2.39;87.64;100772.25;5030025;28;20234;-71
2022/02/01 04:12:40;;;;;;;9.33;2.10;;;;;;;2.38;87.32;100772.28;5022867;28;20288;-71
2022/02/01 04:15:08;;;;;;;11.40;2.20;;;;;;;2.37;87.34;100771.41;5016812;28;20210;-71
2022/02/01 04:17:38;;;;;;;17.10;3.23;;;;;;;2.39;87.73;100763.50;5028024;28;20676;-70
2022/02/01 04:20:06;;;;;;;12.33;2.60;;;;;;;2.41;87.40;100772.19;5025306;28;20321;-71
2022/02/01 04:22:32;;;;;;;15.83;2.70;;;;;;;2.41;86.69;100759.94;5010192;28;20218;-71
2022/02/01 04:24:59;;;;;;;14.50;2.27;;;;;;;2.43;86.73;100744.97;5009027;28;20728;-70
2022/02/01 04:27:30;;;;;;;10.27;3.03;;;;;;;2.46;87.04;100744.03;5021410;28;20202;-71
2022/02/01 04:30:06;;;;;;;14.00;3.23;;;;;;;2.48;86.48;100728.22;5015075;28;20322;-70
2022/02/01 04:32:33;;;;;;;11.13;2.57;;;;;;;2.49;86.26;100722.91;5032050;28;20228;-71
2022/02/01 04:35:01;;;;;;;14.83;2.73;;;;;;;2.50;85.75;100716.75;5033357;28;20209;-71
2022/02/01 04:37:28;;;;;;;11.03;3.10;;;;;;;2.50;86.12;100706.25;5029522;28;20214;-70
2022/02/01 04:39:54;;;;;;;10.47;2.47;;;;;;;2.51;86.12;100700.03;5030021;28;20225;-72
2022/02/01 04:42:21;;;;;;;12.83;2.33;;;;;;;2.52;85.82;100704.41;5028430;28;20234;-71
2022/02/01 04:44:47;;;;;;;11.27;2.13;;;;;;;2.52;85.61;100711.41;5019037;28;20237;-70
2022/02/01 04:47:14;;;;;;;12.27;2.17;;;;;;;2.52;86.12;100709.66;5012978;28;20675;-71
2022/02/01 04:49:40;;;;;;;11.80;2.50;;;;;;;2.51;86.02;100710.56;5034061;28;20622;-69
2022/02/01 04:52:08;;;;;;;6.77;1.80;;;;;;;2.50;85.57;100714.13;5031687;28;20727;-71
2022/02/01 04:54:35;;;;;;;20.50;2.60;;;;;;;2.48;85.91;100729.06;5018009;28;20211;-71
2022/02/01 04:57:02;;;;;;;17.47;3.67;;;;;;;2.45;85.67;100729.16;5023621;28;20210;-71
2022/02/01 04:59:28;;;;;;;18.73;2.47;;;;;;;2.43;84.86;100737.09;5024452;28;20235;-70
2022/02/01 05:01:55;;;;;;;13.80;2.30;;;;;;;2.41;84.65;100733.63;5019825;28;20222;-70
2022/02/01 05:04:21;;;;;;;14.00;2.60;;;;;;;2.38;84.97;100725.84;5026764;28;20234;-71
2022/02/01 05:06:51;;;;;;;9.10;2.43;;;;;;;2.36;84.56;100724.16;5021764;28;20214;-72
2022/02/01 05:09:19;;;;;;;9.83;2.33;;;;;;;2.34;84.35;100723.34;5030332;28;20238;-70
2022/02/01 05:11:45;;;;;;;14.23;3.10;;;;;;;2.31;85.09;100734.81;5020139;28;20214;-70
2022/02/01 05:14:14;;;;;;;10.27;2.33;;;;;;;2.30;85.03;100729.59;5026111;28;20684;-70
2022/02/01 05:16:55;;;;;;;13.83;2.37;;;;;;;2.29;84.18;100727.88;5022773;28;20854;-71
2022/02/01 05:19:32;;;;;;;13.43;2.70;;;;;;;2.28;84.50;100739.28;5017948;28;20234;-70
2022/02/01 05:22:03;;;;;;;12.93;2.93;;;;;;;2.28;84.70;100741.91;5022825;28;20369;-72
2022/02/01 05:24:33;;;;;;;12.33;3.07;;;;;;;2.28;84.10;100737.53;5030908;28;20267;-70
2022/02/01 05:27:01;;;;;;;10.57;2.17;;;;;;;2.27;84.19;100730.53;5017324;28;20218;-72
2022/02/01 05:29:27;;;;;;;12.40;2.03;;;;;;;2.26;83.76;100728.81;5018707;28;20227;-71
2022/02/01 05:31:56;;;;;;;12.60;2.67;;;;;;;2.24;84.51;100732.38;5027695;28;20215;-71
2022/02/01 05:34:23;;;;;;;11.70;2.37;;;;;;;2.23;84.45;100735.91;5023799;28;20206;-70
2022/02/01 05:36:49;;;;;;;9.70;1.80;;;;;;;2.21;83.85;100741.22;5026614;28;20695;-71
2022/02/01 05:39:18;;;;;;;9.50;2.70;;;;;;;2.19;84.47;100742.16;5020333;28;20322;-71
2022/02/01 05:41:46;;;;;;;14.00;2.80;;;;;;;2.18;83.79;100741.28;5020261;28;20309;-71
2022/02/01 05:44:13;;;;;;;10.00;1.70;;;;;;;2.17;84.08;100747.44;5012006;28;20231;-70
2022/02/01 05:46:41;;;;;;;9.47;2.00;;;;;;;2.15;83.63;100740.53;5030159;28;20225;-70
2022/02/01 05:49:07;;;;;;;14.80;2.90;;;;;;;2.13;84.57;100752.84;5026232;28;20222;-70
2022/02/01 05:51:34;;;;;;;11.43;2.30;;;;;;;2.12;84.64;100751.13;5031356;28;20237;-70
2022/02/01 05:54:01;;;;;;;14.80;2.60;;;;;;;2.11;84.30;100768.66;5025848;28;20242;-71
2022/02/01 05:56:28;;;;;;;18.27;2.87;;;;;;;2.11;84.82;100775.69;5025798;28;20695;-70
2022/02/01 05:58:56;;;;;;;15.57;2.87;;;;;;;2.11;84.79;100771.28;5024217;28;20743;-71
2022/02/01 06:01:22;;;;;;;11.50;3.37;;;;;;;2.11;84.08;100767.78;5012318;28;20215;-71
2022/02/01 06:03:49;;;;;;;17.67;3.07;;;;;;;2.11;84.13;100763.41;5025147;28;20666;-70
2022/02/01 06:06:15;;;;;;;11.17;2.50;;;;;;;2.11;84.21;100757.28;5030092;28;20668;-73
2022/02/01 06:08:42;;;;;;;14.80;2.60;;;;;;;2.10;84.48;100743.28;5022928;28;20598;-71
2022/02/01 06:11:08;;;;;;;10.53;2.73;;;;;;;2.12;85.05;100732.75;5029268;28;20222;-71
2022/02/01 06:13:36;;;;;;;13.17;2.67;;;;;;;2.11;84.66;100739.75;5020804;28;20679;-71
2022/02/01 06:16:05;;;;;;;9.80;2.63;;;;;;;2.12;84.72;100740.63;5030870;28;20221;-71
2022/02/01 06:18:31;;;;;;;8.00;1.87;;;;;;;2.10;85.12;100735.41;5018278;28;20210;-71
2022/02/01 06:20:59;;;;;;;9.87;2.77;;;;;;;2.09;85.10;100741.56;5019918;28;20217;-70
2022/02/01 06:23:26;;;;;;;11.90;2.57;;;;;;;2.11;84.85;100749.41;5030440;28;20213;-71
2022/02/01 06:25:53;;;;;;;14.57;2.93;;;;;;;2.09;85.63;100744.19;5029585;28;20221;-70
2022/02/01 06:28:22;;;;;;;9.40;2.50;;;;;;;2.11;85.07;100737.13;5034300;28;20306;-71
2022/02/01 06:30:49;;;;;;;8.20;2.83;;;;;;;2.13;85.37;100721.34;5031879;28;20590;-69
2022/02/01 06:33:17;;;;;;;19.87;3.07;;;;;;;2.12;85.55;100711.72;5026393;28;20293;-71
2022/02/01 06:35:45;;;;;;;10.73;2.33;;;;;;;2.12;85.16;100711.72;5012491;28;20218;-70
2022/02/01 06:38:12;;;;;;;8.83;2.80;;;;;;;2.11;85.58;100715.25;5025135;28;20231;-70
2022/02/01 06:40:39;;;;;;;9.87;1.97;;;;;;;2.10;85.67;100717.00;5026217;28;20227;-70
2022/02/01 06:43:06;;;;;;;10.23;2.07;;;;;;;2.09;85.55;100718.78;5019633;28;20199;-73
2022/02/01 06:45:33;;;;;;;11.30;2.40;;;;;;;2.09;86.20;100721.41;5024546;28;20232;-73
2022/02/01 06:48:00;;;;;;;10.60;2.20;;;;;;;2.10;85.72;100735.41;5041784;28;20260;-73
2022/02/01 06:50:28;;;;;;;5.27;1.73;;;;;;;2.12;85.66;100741.47;5021153;28;20715;-73
2022/02/01 06:52:57;;;;;;;12.57;3.13;;;;;;;2.11;86.20;100739.75;5019176;28;20599;-73
2022/02/01 06:55:33;;;;;;;13.00;2.93;;;;;;;2.13;86.74;100742.34;5028855;28;20204;-73
2022/02/01 06:58:05;;;;;;;12.93;1.83;;;;;;;2.15;86.29;100738.75;5029344;28;20217;-73
2022/02/01 07:00:32;;;;;;;8.70;2.00;;;;;;;2.18;86.79;100740.44;5019357;28;20230;-74
2022/02/01 07:02:58;;;;;;;12.93;3.37;;;;;;;2.18;86.69;100740.44;5019020;28;20206;-73
2022/02/01 07:05:25;;;;;;;15.50;2.50;;;;;;;2.19;87.07;100744.78;5023491;28;20233;-73
2022/02/01 07:07:53;;;;;;;8.07;1.90;;;;;;;2.22;86.38;100744.72;5028319;28;20633;-73
2022/02/01 07:10:20;;;;;;;15.90;2.83;;;;;;;2.25;86.99;100736.75;5030105;28;20335;-73
2022/02/01 07:12:47;;;;;;;14.37;2.43;;;;;;;2.28;87.17;100744.53;5022314;28;20205;-73
2022/02/01 07:15:14;;;;;;;12.67;2.20;;;;;;;2.28;87.22;100734.91;5024539;28;20572;-73
2022/02/01 07:17:48;;;;;;;9.73;3.70;;;;;;;2.31;86.57;100739.22;5024098;28;20216;-73
2022/02/01 07:20:14;;;;;;;7.73;2.07;;;;;;;2.32;86.78;100725.16;5026106;28;20226;-72
2022/02/01 07:22:43;;;;;;;6.27;1.93;;;;;;;2.35;86.64;100714.53;5039997;28;20205;-74
2022/02/01 07:25:16;;;;;;;10.17;2.40;;;;;;;2.35;87.32;100714.53;5026827;28;20704;-73
2022/02/01 07:27:47;;;;;;;10.67;2.00;;;;;;;2.39;87.58;100721.44;5031645;28;20248;-73
2022/02/01 07:30:16;;;;;;;9.10;1.90;;;;;;;2.40;86.78;100703.00;5031338;28;20223;-73
2022/02/01 07:32:43;;;;;;;8.93;2.17;;;;;;;2.43;87.43;100712.56;5021006;28;20230;-73
2022/02/01 07:35:10;;;;;;;7.90;2.10;;;;;;;2.43;87.46;100708.19;5022642;28;20206;-72
2022/02/01 07:37:37;;;;;;;9.30;2.20;;;;;;;2.46;87.00;100707.22;5027401;28;20210;-73
2022/02/01 07:40:04;;;;;;;11.10;3.63;;;;;;;2.45;87.44;100708.13;5025976;28;20218;-74
2022/02/01 07:42:32;;;;;;;13.50;2.30;;;;;;;2.46;87.69;100725.63;5019449;28;20216;-74
2022/02/01 07:45:02;;;;;;;9.67;2.60;;;;;;;2.49;87.26;100717.66;5021026;28;20230;-72
2022/02/01 07:47:28;;;;;;;12.57;2.63;;;;;;;2.51;87.62;100712.34;5021494;28;20226;-75
2022/02/01 07:49:55;;;;;;;11.80;3.33;;;;;;;2.53;87.08;100690.34;5020666;28;20233;-75
2022/02/01 07:52:21;;;;;;;14.17;3.27;;;;;;;2.56;87.24;100676.25;5024283;28;20210;-73
2022/02/01 07:54:48;;;;;;;12.50;2.40;;;;;;;2.55;87.90;100674.53;5026963;28;20209;-73
2022/02/01 07:57:15;;;;;;;10.53;3.17;;;;;;;2.56;87.10;100661.34;5018982;28;20217;-73
2022/02/01 07:59:43;;;;;;;11.83;3.00;;;;;;;2.58;87.55;100664.78;5027193;28;20771;-73
2022/02/01 08:02:17;;;;;;;12.97;2.87;;;;;;;2.62;88.05;100673.44;5019112;28;20214;-74
2022/02/01 08:04:44;;;;;;;9.83;2.00;;;;;;;2.64;87.68;100679.53;5021661;28;20229;-73
2022/02/01 08:07:11;;;;;;;6.13;2.47;;;;;;;2.67;87.64;100680.31;5018343;28;20203;-74
2022/02/01 08:09:41;;;;;;;9.53;2.20;;;;;;;2.70;87.08;100672.28;5026192;28;21290;-73
2022/02/01 08:12:18;;;;;;;9.43;2.10;;;;;;;2.72;86.90;100653.84;5026352;28;20202;-73
2022/02/01 08:17:35;;;;;;;9.77;1.87;;;;;;;2.77;87.69;100630.91;5028932;28;20212;-74
2022/02/01 08:20:03;;;;;;;9.00;2.30;;;;;;;2.77;87.41;100623.88;5022913;28;20312;-73
2022/02/01 08:22:37;;;;;;;10.97;2.40;;;;;;;2.79;86.88;100598.38;5038413;28;20663;-73
2022/02/01 08:25:04;;;;;;;6.60;2.00;;;;;;;2.80;86.64;100601.88;5031320;28;20710;-73
2022/02/01 08:27:32;;;;;;;10.53;2.00;;;;;;;2.83;86.72;100604.41;5034221;28;20214;-73
2022/02/01 08:30:00;;;;;;;10.33;2.73;;;;;;;2.86;87.16;100603.47;5020434;28;20221;-73
2022/02/01 08:32:29;;;;;;;13.47;2.93;;;;;;;2.85;86.43;100588.59;5032731;28;20285;-73
2022/02/01 08:34:56;;;;;;;9.17;2.20;;;;;;;2.84;87.04;100592.13;5029191;28;20207;-73
2022/02/01 08:37:23;;;;;;;10.80;2.30;;;;;;;2.89;86.85;100582.28;5021841;28;20220;-73
2022/02/01 08:39:49;;;;;;;11.50;3.33;;;;;;;2.91;86.25;100581.34;5032234;28;20221;-73
2022/02/01 08:42:16;;;;;;;9.53;2.97;;;;;;;2.92;86.13;100576.94;5030169;28;20210;-73
2022/02/01 08:44:44;;;;;;;9.77;2.97;;;;;;;2.90;86.45;100579.59;5028035;28;20234;-73
2022/02/01 08:47:13;;;;;;;7.20;2.30;;;;;;;2.94;86.09;100575.13;5030019;28;20695;-74
2022/02/01 08:49:40;;;;;;;9.57;2.50;;;;;;;2.98;86.80;100567.06;5025245;28;20806;-73
2022/02/01 08:52:11;;;;;;;10.10;2.23;;;;;;;2.99;85.88;100549.53;5035067;28;20210;-73
2022/02/01 08:54:38;;;;;;;10.27;2.80;;;;;;;3.01;86.22;100540.66;5030207;28;20211;-73
2022/02/01 08:57:25;;;;;;;8.70;2.90;;;;;;;3.06;86.39;100532.59;5033123;28;20206;-73
2022/02/01 08:59:53;;;;;;;8.33;2.53;;;;;;;3.07;86.08;100536.94;5027981;28;20229;-73
2022/02/01 09:02:24;;;;;;;11.10;3.07;;;;;;;3.08;85.94;100529.00;5034772;28;20216;-72
2022/02/01 09:04:51;;;;;;;5.77;2.70;;;;;;;3.09;85.74;100519.34;5028190;28;20225;-72
2022/02/01 09:07:18;;;;;;;12.33;2.50;;;;;;;3.10;85.27;100513.16;5031668;28;20213;-73
2022/02/01 09:09:44;;;;;;;11.87;2.83;;;;;;;3.11;85.00;100504.38;5033235;28;20260;-73
2022/02/01 09:12:11;;;;;;;8.13;3.37;;;;;;;3.13;85.33;100494.66;5032709;28;20743;-73
2022/02/01 09:14:38;;;;;;;8.37;2.67;;;;;;;3.18;84.96;100483.97;5027623;28;20207;-73
2022/02/01 09:17:06;;;;;;;12.87;3.00;;;;;;;3.22;84.83;100475.06;5027649;28;20213;-73
2022/02/01 09:19:34;;;;;;;8.77;3.13;;;;;;;3.24;84.10;100473.19;5025140;28;20236;-73
2022/02/01 09:22:01;;;;;;;10.70;3.27;;;;;;;3.27;84.36;100479.22;5029153;28;20683;-73
2022/02/01 09:24:29;;;;;;;8.83;2.93;;;;;;;3.31;84.56;100459.78;5033433;28;20244;-73
2022/02/01 09:26:56;;;;;;;12.57;2.90;;;;;;;3.36;83.88;100467.50;5029664;28;20225;-73
2022/02/01 09:29:24;;;;;;;11.60;3.07;;;;;;;3.38;84.02;100455.16;5029987;28;20229;-73
2022/02/01 09:31:52;;;;;;;10.47;2.70;;;;;;;3.44;83.66;100447.88;5023941;28;20203;-74
2022/02/01 09:34:20;;;;;;;8.87;3.10;;;;;;;3.46;83.88;100453.94;5029842;28;20215;-73
2022/02/01 09:36:48;;;;;;;6.83;2.87;;;;;;;3.49;83.69;100438.03;5028687;28;20577;-73
2022/02/01 09:39:15;;;;;;;6.40;2.20;;;;;;;3.55;83.88;100430.81;5029773;28;20704;-73
2022/02/01 09:41:42;;;;;;;9.90;2.60;;;;;;;3.56;82.81;100435.19;5031598;28;20624;-72
2022/02/01 09:44:08;;;;;;;9.17;2.77;;;;;;;3.58;82.20;100426.31;5027899;28;20217;-73
2022/02/01 09:46:35;;;;;;;8.43;3.07;;;;;;;3.61;82.88;100413.00;5033906;28;20229;-73
2022/02/01 09:49:03;;;;;;;8.73;2.77;;;;;;;3.62;82.53;100405.97;5025340;28;20227;-73
2022/02/01 09:51:29;;;;;;;10.13;3.37;;;;;;;3.64;81.94;100404.13;5028411;28;20203;-73
2022/02/01 09:53:57;;;;;;;7.03;2.87;;;;;;;3.67;81.68;100389.06;5026104;28;20238;-73
2022/02/01 09:56:23;;;;;;;8.87;3.17;;;;;;;3.70;81.72;100382.81;5028683;28;20664;-73
2022/02/01 09:58:55;;;;;;;8.23;3.50;;;;;;;3.71;80.83;100374.88;5040591;28;20226;-73
2022/02/01 10:01:25;;;;;;;7.47;3.13;;;;;;;3.72;81.41;100375.72;5032549;28;20232;-75
2022/02/01 10:04:02;;;;;;;9.57;3.00;;;;;;;3.73;81.23;100367.78;5034085;28;20199;-73
2022/02/01 10:06:31;;;;;;;7.37;3.70;;;;;;;3.75;80.88;100359.81;5036038;28;20233;-72
2022/02/01 10:09:06;;;;;;;7.47;3.50;;;;;;;3.80;80.39;100344.66;5024559;28;20226;-74
2022/02/01 10:11:37;;;;;;;7.03;3.80;;;;;;;3.82;80.44;100354.22;5027617;28;20205;-72
2022/02/01 10:14:07;;;;;;;6.93;4.37;;;;;;;3.82;80.11;100327.00;5026512;28;20211;-73
2022/02/01 10:16:42;;;;;;;7.50;3.40;;;;;;;3.86;79.52;100325.97;5028172;28;20297;-73
2022/02/01 10:19:10;;;;;;;9.17;3.93;;;;;;;3.87;79.62;100313.66;5021587;28;20257;-72
2022/02/01 10:21:49;;;;;;;5.87;3.80;;;;;;;3.84;78.98;100318.13;5024297;28;20218;-73
2022/02/01 10:24:28;;;;;;;11.00;5.17;;;;;;;3.84;78.94;100307.59;5017706;28;20546;-72
2022/02/01 10:27:06;;;;;;;7.80;4.23;;;;;;;3.87;79.39;100306.63;5021319;28;20230;-74
2022/02/01 10:29:34;;;;;;;5.03;3.50;;;;;;;3.91;78.99;100291.56;5025448;28;20235;-73
2022/02/01 10:32:02;;;;;;;7.47;4.40;;;;;;;3.90;78.95;100280.16;5017754;28;20213;-73
2022/02/01 10:34:40;;;;;;;9.03;4.17;;;;;;;3.90;79.24;100266.97;5025611;28;20233;-72
2022/02/01 10:37:19;;;;;;;6.57;4.40;;;;;;;3.94;79.49;100271.16;5023753;28;20202;-73
2022/02/01 10:39:54;;;;;;;9.83;6.17;;;;;;;3.94;79.32;100255.38;5018713;28;20250;-73
2022/02/01 10:42:20;;;;;;;8.87;5.47;;;;;;;3.95;79.79;100243.06;5024333;28;20214;-73
2022/02/01 10:44:49;;;;;;;7.50;4.43;;;;;;;3.97;79.46;100235.94;5020515;28;20202;-73
2022/02/01 10:47:18;;;;;;;10.47;4.97;;;;;;;3.98;79.97;100227.13;5021326;28;20227;-75
2022/02/01 10:49:45;;;;;;;10.50;5.10;;;;;;;3.98;80.21;100220.06;5020638;28;20234;-72
2022/02/01 10:52:13;;;;;;;11.30;5.20;;;;;;;3.96;80.58;100216.63;5021321;28;20230;-73
2022/02/01 10:54:42;;;;;;;10.93;4.67;;;;;;;3.94;80.85;100205.31;5019400;28;20222;-74
2022/02/01 10:57:12;;;;;;;11.60;4.63;;;;;;;3.90;81.80;100202.91;5017039;28;20206;-73
2022/02/01 10:59:39;;;;;;;6.83;4.60;;;;;;;3.94;81.30;100186.88;5019733;28;20229;-72
2022/02/01 11:02:06;;;;;;;7.30;4.77;;;;;;;3.93;82.38;100194.88;5019766;28;20294;-73
2022/02/01 11:04:36;;;;;;;8.47;4.40;;;;;;;3.94;82.41;100194.78;5021652;28;20198;-74
2022/02/01 11:07:03;;;;;;;7.60;4.77;;;;;;;3.96;82.34;100189.44;5020222;28;20222;-74
2022/02/01 11:09:32;;;;;;;7.17;4.33;;;;;;;3.89;83.32;100188.00;5025763;28;20235;-73
2022/02/01 11:12:06;;;;;;;8.10;4.63;;;;;;;3.88;84.44;100175.75;5020966;28;20580;-74
2022/02/01 11:14:41;;;;;;;8.00;4.30;;;;;;;3.85;84.98;100166.22;5017268;28;20197;-72
2022/02/01 11:17:09;;;;;;;5.97;4.03;;;;;;;3.83;85.54;100157.50;5025627;28;20201;-72
2022/02/01 11:19:46;;;;;;;6.00;3.37;;;;;;;3.87;84.88;100137.16;5022796;28;20750;-73
2022/02/01 11:22:19;;;;;;;5.10;3.57;;;;;;;3.87;85.20;100148.56;5025158;28;20205;-74
2022/02/01 11:24:52;;;;;;;5.00;4.17;;;;;;;3.84;86.00;100117.94;5024535;28;20203;-73
2022/02/01 11:27:31;;;;;;;5.77;3.77;;;;;;;3.83;85.77;100108.31;5020473;28;20234;-75
2022/02/01 11:30:11;;;;;;;6.23;4.10;;;;;;;3.83;85.79;100096.94;5020064;28;20229;-72
2022/02/01 11:32:40;;;;;;;8.97;4.17;;;;;;;3.83;86.31;100094.28;5019732;28;20283;-72
2022/02/01 11:35:09;;;;;;;7.07;4.10;;;;;;;3.82;87.28;100090.81;5024603;28;20210;-73
2022/02/01 11:37:46;;;;;;;5.60;3.70;;;;;;;3.83;87.52;100084.63;5017636;28;20205;-73
2022/02/01 11:40:14;;;;;;;5.60;3.93;;;;;;;3.80;87.93;100083.88;5021831;28;20236;-73
2022/02/01 11:42:51;;;;;;;5.03;3.47;;;;;;;3.80;87.60;100062.81;5019404;28;20207;-73
2022/02/01 11:45:28;;;;;;;3.53;2.70;;;;;;;3.76;88.48;100053.38;5025349;28;20197;-74
2022/02/01 11:47:54;;;;;;;4.63;2.90;;;;;;;3.76;89.12;100043.66;5022901;28;20213;-74
2022/02/01 11:50:23;;;;;;;5.97;4.00;;;;;;;3.75;89.73;100039.34;5029256;28;20225;-74
2022/02/01 11:52:52;;;;;;;5.63;3.30;;;;;;;3.74;89.59;100044.69;5019972;28;20213;-76
2022/02/01 11:55:21;;;;;;;4.93;3.23;;;;;;;3.74;90.77;100031.50;5018865;28;20229;-76
2022/02/01 11:57:51;;;;;;;3.27;2.17;;;;;;;3.73;90.88;100020.13;5019094;28;20222;-77
2022/02/01 12:00:22;;;;;;;4.70;3.27;;;;;;;3.76;90.79;100014.69;5027401;28;20232;-77
2022/02/01 12:02:50;;;;;;;4.73;2.77;;;;;;;3.76;90.60;100009.41;5019868;28;20198;-76
2022/02/01 12:05:19;;;;;;;5.63;3.60;;;;;;;3.80;90.64;99994.34;5020927;28;20612;-75
2022/02/01 12:07:52;;;;;;;5.77;4.73;;;;;;;3.81;91.50;99986.38;5029683;28;20702;-77
2022/02/01 12:10:20;;;;;;;4.27;1.80;;;;;;;3.85;91.75;99966.00;5022347;28;20593;-76
2022/02/01 12:12:47;;;;;;;8.43;7.57;;;;;;;3.88;91.47;99963.25;5029074;28;20225;-76
2022/02/01 12:15:14;;;;;;;7.63;6.87;;;;;;;3.89;92.10;99953.56;5028256;28;20202;-76
2022/02/01 12:17:49;;;;;;;9.83;8.93;;;;;;;3.95;91.58;99950.63;5030649;28;20197;-76
2022/02/01 12:20:17;;;;;;;3.37;3.07;;;;;;;3.92;92.52;99941.09;5026030;28;20221;-78
2022/02/01 12:23:02;;;;;;;2.93;2.43;;;;;;;3.97;91.96;99922.41;5022741;28;20589;-77
2022/02/01 12:25:30;;;;;;;4.63;2.70;;;;;;;3.97;92.34;99949.63;5032021;28;20224;-76
2022/02/01 12:27:56;;;;;;;5.80;3.00;;;;;;;3.98;92.92;99935.53;5026984;28;20222;-77
2022/02/01 12:30:23;;;;;;;2.50;2.30;;;;;;;3.98;93.99;99914.44;5024998;28;20240;-77
2022/02/01 12:32:52;;;;;;;2.70;2.40;;;;;;;3.99;93.88;99908.25;5027807;28;20201;-76
2022/02/01 12:35:30;;;;;;;1.70;1.60;;;;;;;4.01;94.07;99874.78;5026814;28;20210;-77
2022/02/01 12:38:03;;;;;;;2.30;1.90;;;;;;;4.02;94.17;99873.00;5023321;28;20219;-77